CheckWX is a tool to help pilots better visualize weather data.  It is not intended as a substitute for an official pre-flight weather briefing.

18:31:55 UTC

EHSC METAR
Goeree Le Sea
Goeree Le Sea, The Netherlands
Current

37 mins ago

EHSC 221755Z AUTO 05004KT 9999 ///////// 06/05 Q1037 W06/H3
Observed
Feb-22 @ 17:55 UTC
Wind
  • 050° at 4 KTS
Visibility
10,000+ meters
Temperature
C / 43°F
Dewpoint
C / 41°F
Humidity
93%
Altimeter
30.62" Hg
Pressure
1036.91 hPa
Previous

1 hour ago

EHSC 221725Z AUTO 04003KT 360V070 9999 ///////// 06/05 Q1037 W06/H3
Observed
Feb-22 @ 17:25 UTC
Wind
  • 040° at 3 KTS
Visibility
10,000+ meters
Temperature
C / 43°F
Dewpoint
C / 41°F
Humidity
93%
Altimeter
30.62" Hg
Pressure
1036.91 hPa
Previous

2 hours ago

EHSC 221655Z AUTO 04002KT 9999 ///////// 06/06 Q1037 W06/H3
Observed
Feb-22 @ 16:55 UTC
Wind
  • 040° at 2 KTS
Visibility
10,000+ meters
Temperature
C / 43°F
Dewpoint
C / 43°F
Humidity
100%
Altimeter
30.62" Hg
Pressure
1036.91 hPa